createdAt,value
2022-09-28T00:01:20.810Z,8.55
2022-09-28T00:03:50.535Z,8.65
2022-09-28T00:06:20.599Z,10.23
2022-09-28T00:08:51.316Z,10.55
2022-09-28T00:11:20.766Z,9.93
2022-09-28T00:13:56.674Z,9.88
2022-09-28T00:16:27.460Z,11.13
2022-09-28T00:18:55.534Z,13.35
2022-09-28T00:21:30.638Z,9.85
2022-09-28T00:24:15.700Z,9.43
2022-09-28T00:26:54.198Z,10.73
2022-09-28T00:29:21.476Z,11.32
2022-09-28T00:31:52.243Z,10.25
2022-09-28T00:34:20.056Z,10.10
2022-09-28T00:36:48.138Z,9.43
2022-09-28T00:39:16.301Z,9.80
2022-09-28T00:41:47.164Z,12.30
2022-09-28T00:44:26.445Z,12.88
2022-09-28T00:46:58.116Z,12.55
2022-09-28T00:49:52.559Z,12.52
2022-09-28T00:52:28.724Z,17.58
2022-09-28T00:54:58.623Z,14.27
2022-09-28T00:57:27.589Z,11.40
2022-09-28T00:59:55.557Z,11.80
2022-09-28T01:02:22.831Z,12.02
2022-09-28T01:04:51.480Z,12.25
2022-09-28T01:07:19.960Z,15.43
2022-09-28T01:09:48.527Z,12.35
2022-09-28T01:12:16.279Z,13.45
2022-09-28T01:14:44.971Z,10.88
2022-09-28T01:17:20.849Z,13.38
2022-09-28T01:20:15.708Z,9.73
2022-09-28T01:22:57.016Z,10.20
2022-09-28T01:25:39.169Z,8.27
2022-09-28T01:28:11.093Z,8.13
2022-09-28T01:33:22.307Z,8.60
2022-09-28T01:35:58.103Z,8.00
2022-09-28T01:38:40.955Z,8.63
2022-09-28T01:41:10.331Z,5.13
2022-09-28T01:43:45.789Z,5.18
2022-09-28T01:46:17.765Z,4.88
2022-09-28T01:51:21.579Z,5.72
2022-09-28T01:53:54.774Z,5.05
2022-09-28T01:56:36.854Z,5.90
2022-09-28T01:59:24.204Z,4.65
2022-09-28T02:02:09.873Z,5.15
2022-09-28T02:04:42.878Z,5.30
2022-09-28T02:07:21.525Z,6.22
2022-09-28T02:23:22.356Z,5.13
2022-09-28T02:25:59.113Z,5.35
2022-09-28T02:28:26.409Z,5.65
2022-09-28T02:30:53.783Z,5.30
2022-09-28T02:33:34.110Z,6.40
2022-09-28T02:36:03.490Z,4.82
2022-09-28T02:38:34.224Z,5.20
2022-09-28T02:41:08.334Z,5.90
2022-09-28T02:43:56.188Z,4.47
2022-09-28T02:46:47.730Z,7.63
2022-09-28T02:49:40.308Z,6.00
2022-09-28T02:52:19.715Z,5.93
2022-09-28T02:55:16.346Z,6.47
2022-09-28T02:58:08.908Z,7.28
2022-09-28T03:00:58.219Z,5.85
2022-09-28T03:03:47.470Z,6.40
2022-09-28T03:06:32.170Z,6.43
2022-09-28T03:09:20.661Z,7.15
2022-09-28T03:11:54.013Z,7.53
2022-09-28T03:14:22.141Z,8.20
2022-09-28T03:16:53.586Z,6.88
2022-09-28T03:19:27.471Z,6.45
2022-09-28T03:21:55.670Z,7.07
2022-09-28T03:24:22.989Z,7.28
2022-09-28T03:26:50.719Z,5.53
2022-09-28T03:29:20.415Z,7.03
2022-09-28T03:31:55.340Z,6.43
2022-09-28T03:34:22.958Z,7.30
2022-09-28T03:36:50.476Z,6.43
2022-09-28T03:39:20.678Z,6.80
2022-09-28T03:41:47.909Z,8.65
2022-09-28T03:44:16.284Z,8.85
2022-09-28T03:46:46.481Z,6.38
2022-09-28T03:49:13.794Z,10.63
2022-09-28T03:51:41.058Z,7.53
2022-09-28T03:54:09.269Z,7.13
2022-09-28T03:56:37.098Z,7.53
2022-09-28T03:59:05.166Z,6.38
2022-09-28T04:01:35.493Z,5.65
2022-09-28T04:04:02.846Z,7.00
2022-09-28T04:06:30.913Z,6.78
2022-09-28T04:08:58.339Z,8.10
2022-09-28T04:11:25.978Z,8.43
2022-09-28T04:13:53.300Z,12.80
2022-09-28T04:16:38.930Z,8.90
2022-09-28T04:19:15.740Z,8.30
2022-09-28T04:22:09.221Z,10.55
2022-09-28T04:24:36.586Z,10.20
2022-09-28T04:27:22.423Z,8.50
2022-09-28T04:29:49.702Z,7.70
2022-09-28T04:32:17.477Z,8.48
2022-09-28T04:34:44.788Z,7.05
2022-09-28T04:37:12.719Z,8.48
2022-09-28T04:39:43.126Z,8.75
2022-09-28T04:42:13.711Z,8.32
2022-09-28T04:44:40.976Z,10.50
2022-09-28T04:47:09.898Z,7.70
2022-09-28T04:49:55.969Z,7.97
2022-09-28T04:52:30.910Z,8.90
2022-09-28T04:54:58.210Z,10.00
2022-09-28T04:57:26.445Z,10.25
2022-09-28T04:59:55.124Z,11.23
2022-09-28T05:02:22.422Z,10.10
2022-09-28T05:05:08.727Z,9.38
2022-09-28T05:07:45.952Z,8.40
2022-09-28T05:10:13.358Z,8.73
2022-09-28T05:12:41.064Z,10.95
2022-09-28T05:15:08.847Z,13.70
2022-09-28T05:17:36.318Z,7.95
2022-09-28T05:20:29.707Z,9.40
2022-09-28T05:22:57.382Z,8.73
2022-09-28T05:25:24.833Z,8.90
2022-09-28T05:28:27.995Z,8.10
2022-09-28T05:31:33.595Z,10.90
2022-09-28T05:34:12.825Z,6.43
2022-09-28T05:36:42.641Z,9.57
2022-09-28T05:39:09.922Z,6.50
2022-09-28T05:41:37.267Z,7.63
2022-09-28T05:44:05.423Z,8.77
2022-09-28T05:46:33.973Z,8.60
2022-09-28T05:49:02.033Z,6.15
2022-09-28T05:51:29.402Z,7.25
2022-09-28T05:54:00.649Z,7.85
2022-09-28T05:56:31.374Z,7.80
2022-09-28T05:58:58.939Z,5.70
2022-09-28T06:01:29.193Z,6.38
2022-09-28T06:03:58.496Z,4.43
2022-09-28T06:06:26.190Z,5.97
2022-09-28T06:08:53.473Z,8.23
2022-09-28T06:11:31.870Z,4.68
2022-09-28T06:16:31.891Z,3.53
2022-09-28T06:18:59.245Z,2.45
2022-09-28T06:21:57.543Z,4.38
2022-09-28T06:24:27.056Z,4.40
2022-09-28T06:26:54.312Z,2.95
2022-09-28T06:29:22.366Z,2.05
2022-09-28T06:31:49.627Z,2.88
2022-09-28T06:34:19.092Z,1.63
2022-09-28T06:37:05.264Z,2.15
2022-09-28T06:39:33.192Z,2.28
2022-09-28T06:42:03.261Z,7.68
2022-09-28T06:44:50.451Z,2.67
2022-09-28T06:47:25.099Z,7.53
2022-09-28T06:50:12.196Z,1.77
2022-09-28T06:53:08.644Z,2.85
2022-09-28T06:55:57.429Z,2.17
2022-09-28T06:58:24.979Z,4.05
2022-09-28T07:00:52.520Z,2.72
2022-09-28T07:03:22.047Z,2.08
2022-09-28T07:06:00.010Z,3.25
2022-09-28T07:09:03.515Z,3.13
2022-09-28T07:12:13.392Z,2.05
2022-09-28T07:14:50.187Z,3.55
2022-09-28T07:17:17.892Z,1.95
2022-09-28T07:19:45.198Z,4.03
2022-09-28T07:22:18.497Z,2.53
2022-09-28T07:24:48.348Z,6.10
2022-09-28T07:27:44.946Z,2.35
2022-09-28T07:51:22.179Z,1.58
2022-09-28T07:54:10.614Z,2.85
2022-09-28T07:57:01.241Z,1.70
2022-09-28T07:59:49.836Z,2.40
2022-09-28T08:02:37.218Z,1.27
2022-09-28T08:05:05.607Z,1.42
2022-09-28T08:07:34.408Z,1.00
2022-09-28T08:10:06.045Z,1.50
2022-09-28T08:12:59.246Z,1.75
2022-09-28T08:15:52.454Z,1.10
2022-09-28T08:18:33.257Z,3.38
2022-09-28T08:21:21.734Z,3.10
2022-09-28T08:23:49.418Z,1.50
2022-09-28T08:26:17.088Z,1.02
2022-09-28T08:28:47.770Z,2.88
2022-09-28T08:31:37.746Z,1.70
2022-09-28T08:34:22.555Z,1.15
2022-09-28T08:36:53.326Z,1.17
2022-09-28T08:39:39.255Z,1.88
2022-09-28T08:42:43.370Z,2.35
2022-09-28T08:45:29.024Z,0.80
2022-09-28T08:48:33.263Z,1.92
2022-09-28T08:54:08.093Z,1.17
2022-09-28T08:56:52.781Z,1.92
2022-09-28T08:59:24.763Z,1.15
2022-09-28T09:02:04.106Z,2.03
2022-09-28T09:04:33.819Z,1.35
2022-09-28T09:07:43.932Z,2.15
2022-09-28T09:10:35.326Z,0.90
2022-09-28T09:13:39.645Z,2.20
2022-09-28T09:16:25.686Z,1.80
2022-09-28T09:19:40.376Z,1.40
2022-09-28T09:22:47.875Z,1.42
2022-09-28T09:25:21.850Z,3.88
2022-09-28T09:27:52.036Z,2.03
2022-09-28T09:30:25.498Z,1.63
2022-09-28T09:33:30.688Z,1.55
2022-09-28T09:36:53.490Z,1.35
2022-09-28T09:39:45.098Z,2.20
2022-09-28T09:43:21.072Z,2.22
2022-09-28T09:46:19.867Z,3.05
2022-09-28T09:49:18.402Z,3.28
2022-09-28T09:51:57.729Z,2.92
2022-09-28T09:54:46.794Z,1.40
2022-09-28T09:57:39.595Z,2.83
2022-09-28T10:00:28.145Z,2.88
2022-09-28T10:03:21.431Z,2.67
2022-09-28T10:05:55.615Z,2.08
2022-09-28T10:08:25.926Z,1.88
2022-09-28T10:11:07.634Z,2.22
2022-09-28T10:13:42.040Z,2.03
2022-09-28T10:16:33.060Z,1.77
2022-09-28T10:19:01.650Z,3.38
2022-09-28T10:22:02.559Z,2.55
2022-09-28T10:24:42.709Z,1.88
2022-09-28T10:27:25.658Z,2.00
2022-09-28T10:29:57.636Z,3.60
2022-09-28T10:35:16.977Z,1.52
2022-09-28T10:37:57.030Z,1.88
2022-09-28T10:41:01.724Z,3.00
2022-09-28T10:44:06.211Z,2.25
2022-09-28T10:46:39.656Z,2.05
2022-09-28T10:49:20.139Z,0.93
2022-09-28T10:51:58.677Z,2.60
2022-09-28T10:54:38.706Z,1.52
2022-09-28T10:57:42.420Z,3.80
2022-09-28T11:00:40.711Z,3.08
2022-09-28T11:03:28.093Z,2.03
2022-09-28T11:06:07.917Z,1.67
2022-09-28T11:08:44.526Z,1.85
2022-09-28T11:11:20.084Z,1.50
2022-09-28T11:13:54.308Z,2.05
2022-09-28T11:16:31.426Z,4.03
2022-09-28T11:19:20.713Z,1.27
2022-09-28T11:21:49.417Z,8.23
2022-09-28T11:24:19.732Z,14.35
2022-09-28T11:26:50.797Z,4.63
2022-09-28T11:29:38.924Z,4.00
2022-09-28T11:32:23.810Z,1.88
2022-09-28T11:35:20.713Z,4.55
2022-09-28T11:38:03.527Z,2.63
2022-09-28T11:41:10.462Z,3.58
2022-09-28T11:43:53.636Z,2.33
2022-09-28T11:46:56.638Z,4.15
2022-09-28T11:49:53.828Z,2.55
2022-09-28T11:52:47.319Z,3.55
2022-09-28T11:55:26.758Z,2.75
2022-09-28T11:58:06.200Z,4.13
2022-09-28T12:00:40.928Z,4.25
2022-09-28T12:03:21.714Z,6.75
2022-09-28T12:05:59.218Z,3.58
2022-09-28T12:08:31.085Z,4.63
2022-09-28T12:11:15.608Z,4.30
2022-09-28T12:14:34.373Z,6.95
2022-09-28T12:17:11.342Z,3.67
2022-09-28T12:19:52.187Z,2.95
2022-09-28T12:22:25.491Z,5.05
2022-09-28T12:24:56.487Z,4.50
2022-09-28T12:27:38.835Z,7.07
2022-09-28T12:30:09.383Z,4.88
2022-09-28T12:33:27.392Z,3.80
2022-09-28T12:36:30.343Z,3.70
2022-09-28T12:39:40.772Z,6.40
2022-09-28T12:42:29.144Z,3.40
2022-09-28T12:45:17.435Z,4.82
2022-09-28T12:48:08.179Z,5.57
2022-09-28T12:50:57.916Z,4.50
2022-09-28T12:53:47.318Z,4.28
2022-09-28T12:56:42.156Z,7.68
2022-09-28T12:59:29.164Z,3.25
2022-09-28T13:02:21.460Z,3.45
2022-09-28T13:07:40.729Z,3.28
2022-09-28T13:10:22.034Z,7.32
2022-09-28T13:13:10.345Z,4.57
2022-09-28T13:15:56.086Z,6.45
2022-09-28T13:18:42.770Z,3.33
2022-09-28T13:21:20.464Z,7.32
2022-09-28T13:23:50.369Z,5.22
2022-09-28T13:26:26.265Z,6.80
2022-09-28T13:28:59.220Z,4.57
2022-09-28T13:31:33.158Z,4.50
2022-09-28T13:34:04.236Z,3.33
2022-09-28T13:36:31.433Z,4.00
2022-09-28T13:39:00.174Z,5.35
2022-09-28T13:41:38.583Z,5.72
2022-09-28T13:44:18.107Z,4.18
2022-09-28T13:46:55.036Z,3.38
2022-09-28T13:49:45.535Z,3.28
2022-09-28T13:52:36.899Z,4.75
2022-09-28T13:55:33.404Z,3.10
2022-09-28T13:58:04.494Z,3.13
2022-09-28T14:00:45.452Z,3.43
2022-09-28T14:03:51.552Z,4.95
2022-09-28T14:06:33.252Z,3.78
2022-09-28T14:09:26.844Z,4.32
2022-09-28T14:12:03.082Z,4.53
2022-09-28T14:14:47.231Z,6.38
2022-09-28T14:17:23.637Z,4.78
2022-09-28T14:19:53.330Z,4.07
2022-09-28T14:22:28.796Z,4.22
2022-09-28T14:25:20.760Z,8.43
2022-09-28T14:28:06.657Z,5.03
2022-09-28T14:30:43.127Z,4.35
2022-09-28T14:33:28.188Z,6.35
2022-09-28T14:36:47.286Z,10.25
2022-09-28T14:39:51.112Z,4.85
2022-09-28T14:42:24.459Z,2.08
2022-09-28T14:45:06.705Z,2.95
2022-09-28T14:47:34.956Z,3.80
2022-09-28T14:50:20.180Z,3.72
2022-09-28T14:52:52.613Z,3.70
2022-09-28T14:55:27.670Z,6.13
2022-09-28T14:57:57.919Z,4.88
2022-09-28T15:00:29.331Z,6.05
2022-09-28T15:03:03.009Z,3.78
2022-09-28T15:05:38.495Z,4.38
2022-09-28T15:08:10.260Z,3.33
2022-09-28T15:10:42.028Z,2.83
2022-09-28T15:13:25.980Z,3.78
2022-09-28T15:16:10.439Z,5.03
2022-09-28T15:18:59.222Z,4.05
2022-09-28T15:21:40.988Z,2.22
2022-09-28T15:24:31.511Z,4.10
2022-09-28T15:27:14.930Z,3.85
2022-09-28T15:30:16.020Z,3.25
2022-09-28T15:32:43.228Z,3.22
2022-09-28T15:35:20.543Z,4.18
2022-09-28T15:37:51.914Z,3.90
2022-09-28T15:40:30.264Z,3.72
2022-09-28T15:42:59.349Z,9.95
2022-09-28T15:45:40.590Z,4.47
2022-09-28T15:48:31.003Z,3.45
2022-09-28T15:51:06.162Z,4.28
2022-09-28T15:53:33.845Z,4.80
2022-09-28T15:56:09.827Z,2.90
2022-09-28T15:58:43.521Z,4.13
2022-09-28T16:01:40.894Z,3.72
2022-09-28T16:04:33.073Z,6.30
2022-09-28T16:07:09.391Z,4.15
2022-09-28T16:10:04.799Z,3.17
2022-09-28T16:12:43.485Z,3.13
2022-09-28T16:15:14.226Z,3.40
2022-09-28T16:17:42.050Z,3.53
2022-09-28T16:20:28.444Z,4.10
2022-09-28T16:22:57.762Z,1.88
2022-09-28T16:25:27.011Z,3.63
2022-09-28T16:27:55.333Z,3.58
2022-09-28T16:30:33.807Z,4.57
2022-09-28T16:33:25.668Z,2.42
2022-09-28T16:35:52.983Z,6.57
2022-09-28T16:38:20.679Z,3.65
2022-09-28T16:40:50.671Z,4.07
2022-09-28T16:43:17.904Z,4.90
2022-09-28T16:45:46.245Z,2.15
2022-09-28T16:48:16.492Z,5.97
2022-09-28T16:50:45.135Z,7.82
2022-09-28T16:53:35.663Z,5.38
2022-09-28T16:56:04.740Z,3.85
2022-09-28T16:58:32.258Z,2.65
2022-09-28T17:01:00.477Z,4.25
2022-09-28T17:03:28.717Z,4.28
2022-09-28T17:05:56.585Z,4.65
2022-09-28T17:08:25.554Z,4.78
2022-09-28T17:11:18.985Z,5.35
2022-09-28T17:13:47.140Z,4.78
2022-09-28T17:16:17.900Z,6.00
2022-09-28T17:18:46.016Z,4.65
2022-09-28T17:21:16.265Z,3.90
2022-09-28T17:23:44.891Z,4.05
2022-09-28T17:26:34.395Z,4.55
2022-09-28T17:29:01.983Z,6.03
2022-09-28T17:31:30.258Z,6.00
2022-09-28T17:33:58.111Z,3.42
2022-09-28T17:36:26.653Z,3.15
2022-09-28T17:38:53.905Z,4.47
2022-09-28T17:41:21.263Z,4.20
2022-09-28T17:43:49.342Z,6.43
2022-09-28T17:46:38.710Z,3.10
2022-09-28T17:49:07.563Z,6.25
2022-09-28T17:51:39.525Z,6.65
2022-09-28T17:54:08.008Z,6.35
2022-09-28T17:56:36.500Z,4.65
2022-09-28T17:59:10.101Z,4.65
2022-09-28T18:01:39.155Z,4.05
2022-09-28T18:04:08.833Z,6.35
2022-09-28T18:06:41.001Z,4.38
2022-09-28T18:11:42.257Z,3.78
2022-09-28T18:14:11.327Z,3.10
2022-09-28T18:16:38.935Z,3.78
2022-09-28T18:19:06.261Z,3.88
2022-09-28T18:21:33.693Z,5.30
2022-09-28T18:24:01.189Z,4.53
2022-09-28T18:26:28.458Z,5.78
2022-09-28T18:28:56.343Z,3.53
2022-09-28T18:31:23.696Z,6.90
2022-09-28T18:33:51.171Z,5.15
2022-09-28T18:36:18.443Z,5.68
2022-09-28T18:38:45.639Z,3.97
2022-09-28T18:41:16.744Z,5.85
2022-09-28T18:43:50.233Z,3.50
2022-09-28T18:46:18.444Z,4.85
2022-09-28T18:48:47.699Z,5.35
2022-09-28T18:51:15.151Z,4.78
2022-09-28T18:53:42.452Z,6.47
2022-09-28T18:56:12.991Z,4.05
2022-09-28T18:58:44.274Z,5.65
2022-09-28T19:01:29.423Z,4.50
2022-09-28T19:04:06.589Z,4.60
2022-09-28T19:06:36.898Z,4.63
2022-09-28T19:09:04.406Z,4.05
2022-09-28T19:11:31.731Z,3.70
2022-09-28T19:13:59.123Z,3.35
2022-09-28T19:16:31.239Z,5.10
2022-09-28T19:21:29.691Z,3.80
2022-09-28T19:24:00.540Z,5.28
2022-09-28T19:26:31.324Z,4.20
2022-09-28T19:28:59.584Z,6.80
2022-09-28T19:31:28.682Z,5.63
2022-09-28T19:33:55.952Z,5.50
2022-09-28T19:36:24.827Z,7.18
2022-09-28T19:38:52.685Z,5.38
2022-09-28T19:41:44.162Z,6.22
2022-09-28T19:44:19.285Z,7.10
2022-09-28T19:46:46.714Z,6.18
2022-09-28T19:49:23.714Z,8.98
2022-09-28T19:52:14.384Z,5.28
2022-09-28T19:54:54.360Z,5.38
2022-09-28T19:57:24.632Z,5.28
2022-09-28T19:59:54.993Z,5.97
2022-09-28T20:02:24.057Z,7.38
2022-09-28T20:04:51.255Z,6.70
2022-09-28T20:07:18.584Z,8.95
2022-09-28T20:09:45.859Z,6.25
2022-09-28T20:12:13.108Z,7.95
2022-09-28T20:14:40.653Z,6.28
2022-09-28T20:17:08.117Z,5.70
2022-09-28T20:19:36.056Z,9.70
2022-09-28T20:22:03.970Z,6.63
2022-09-28T20:24:31.970Z,4.85
2022-09-28T20:26:59.326Z,6.28
2022-09-28T20:29:26.712Z,6.13
2022-09-28T20:31:53.956Z,7.10
2022-09-28T20:34:21.316Z,6.18
2022-09-28T20:36:51.253Z,6.13
2022-09-28T20:39:18.716Z,8.40
2022-09-28T20:41:47.216Z,9.88
2022-09-28T20:44:14.905Z,7.25
2022-09-28T20:46:44.099Z,7.57
2022-09-28T20:49:11.512Z,7.07
2022-09-28T20:51:38.724Z,7.03
2022-09-28T20:54:05.981Z,7.20
2022-09-28T20:56:38.078Z,5.20
2022-09-28T20:59:07.460Z,6.20
2022-09-28T21:01:35.207Z,6.63
2022-09-28T21:04:04.675Z,6.60
2022-09-28T21:06:34.879Z,8.73
2022-09-28T21:09:03.700Z,6.38
2022-09-28T21:11:32.122Z,6.65
2022-09-28T21:14:01.741Z,6.63
2022-09-28T21:16:31.383Z,7.28
2022-09-28T21:18:59.189Z,8.43
2022-09-28T21:21:28.905Z,8.13
2022-09-28T21:23:57.349Z,5.90
2022-09-28T21:26:29.457Z,7.85
2022-09-28T21:29:04.069Z,6.00
2022-09-28T21:31:38.359Z,7.40
2022-09-28T21:34:06.343Z,7.15
2022-09-28T21:36:34.222Z,7.05
2022-09-28T21:39:04.954Z,8.02
2022-09-28T21:41:34.363Z,5.25
2022-09-28T21:44:01.706Z,6.68
2022-09-28T21:46:34.013Z,7.93
2022-09-28T21:49:02.986Z,5.65
2022-09-28T21:51:31.088Z,6.00
2022-09-28T21:53:58.499Z,10.07
2022-09-28T21:56:26.785Z,7.55
2022-09-28T21:58:54.034Z,10.80
2022-09-28T22:01:25.455Z,6.35
2022-09-28T22:03:55.149Z,6.65
2022-09-28T22:06:24.798Z,7.90
2022-09-28T22:08:52.722Z,7.85
2022-09-28T22:11:22.782Z,9.93
2022-09-28T22:13:52.880Z,5.97
2022-09-28T22:16:23.012Z,5.43
2022-09-28T22:18:50.851Z,7.82
2022-09-28T22:21:26.062Z,7.10
2022-09-28T22:23:54.120Z,5.80
2022-09-28T22:26:25.621Z,7.80
2022-09-28T22:28:58.521Z,7.82
2022-09-28T22:31:28.627Z,11.25
2022-09-28T22:33:57.055Z,7.90
2022-09-28T22:36:25.922Z,6.38
2022-09-28T22:38:57.780Z,5.00
2022-09-28T22:41:25.531Z,9.90
2022-09-28T22:43:54.550Z,7.13
2022-09-28T22:46:25.339Z,6.25
2022-09-28T22:48:55.073Z,5.65
2022-09-28T22:51:24.207Z,5.85
2022-09-28T22:53:51.644Z,9.00
2022-09-28T22:56:19.352Z,7.28
2022-09-28T22:58:46.856Z,7.30
2022-09-28T23:01:19.847Z,4.95
2022-09-28T23:03:47.811Z,7.45
2022-09-28T23:06:17.002Z,7.35
2022-09-28T23:08:45.810Z,8.80
2022-09-28T23:11:13.207Z,8.32
2022-09-28T23:13:42.967Z,7.57
2022-09-28T23:16:14.794Z,6.63
2022-09-28T23:21:15.194Z,7.47
2022-09-28T23:23:47.033Z,6.95
2022-09-28T23:26:29.494Z,7.55
2022-09-28T23:28:57.923Z,12.55
2022-09-28T23:31:28.403Z,6.35
2022-09-28T23:34:01.738Z,6.50
2022-09-28T23:36:29.398Z,8.98
2022-09-28T23:38:56.741Z,7.00
2022-09-28T23:41:24.171Z,5.97
2022-09-28T23:43:51.423Z,7.47
2022-09-28T23:46:20.875Z,7.88
2022-09-28T23:48:48.980Z,7.32
2022-09-28T23:51:17.892Z,6.25
2022-09-28T23:53:45.791Z,8.40
2022-09-28T23:56:14.562Z,7.38
2022-09-28T23:58:44.759Z,10.63
